createdAt,value
2022-12-07T00:00:25.968Z,99667.72
2022-12-07T00:01:12.941Z,99668.34
2022-12-07T00:01:47.038Z,99671.59
2022-12-07T00:02:18.989Z,99674.78
2022-12-07T00:02:50.903Z,99673.19
2022-12-07T00:03:22.927Z,99668.34
2022-12-07T00:04:06.859Z,99675.59
2022-12-07T00:04:38.815Z,99678.66
2022-12-07T00:05:10.647Z,99677.06
2022-12-07T00:05:42.495Z,99678.03
2022-12-07T00:06:16.602Z,99682.19
2022-12-07T00:06:53.749Z,99673.00
2022-12-07T00:07:27.937Z,99672.69
2022-12-07T00:08:00.001Z,99671.09
2022-12-07T00:08:33.684Z,99675.44
2022-12-07T00:09:07.181Z,99670.44
2022-12-07T00:09:39.951Z,99663.81
2022-12-07T00:10:11.800Z,99674.78
2022-12-07T00:10:43.641Z,99671.88
2022-12-07T00:11:18.962Z,99660.91
2022-12-07T00:11:52.229Z,99669.97
2022-12-07T00:12:24.081Z,99670.59
2022-12-07T00:12:55.918Z,99676.41
2022-12-07T00:13:27.735Z,99671.25
2022-12-07T00:14:02.313Z,99666.44
2022-12-07T00:14:34.319Z,99670.94
2022-12-07T00:15:06.781Z,99665.28
2022-12-07T00:15:38.705Z,99666.88
2022-12-07T00:16:18.775Z,99665.75
2022-12-07T00:16:52.264Z,99665.13
2022-12-07T00:17:24.154Z,99667.72
2022-12-07T00:17:55.990Z,99668.00
2022-12-07T00:18:27.896Z,99658.19
2022-12-07T00:19:00.728Z,99658.66
2022-12-07T00:19:32.612Z,99658.66
2022-12-07T00:20:05.117Z,99654.78
2022-12-07T00:20:37.107Z,99668.84
2022-12-07T00:21:18.007Z,99661.25
2022-12-07T00:21:50.298Z,99648.97
2022-12-07T00:22:22.109Z,99650.28
2022-12-07T00:22:53.979Z,99658.50
2022-12-07T00:23:25.834Z,99663.19
2022-12-07T00:23:58.194Z,99654.12
2022-12-07T00:24:30.040Z,99665.44
2022-12-07T00:25:01.891Z,99651.41
2022-12-07T00:25:33.721Z,99660.94
2022-12-07T00:26:17.373Z,99660.09
2022-12-07T00:26:49.329Z,99660.28
2022-12-07T00:27:21.490Z,99652.06
2022-12-07T00:27:56.573Z,99655.44
2022-12-07T00:28:28.454Z,99650.59
2022-12-07T00:29:03.131Z,99655.63
2022-12-07T00:29:34.994Z,99646.09
2022-12-07T00:30:07.525Z,99651.41
2022-12-07T00:30:39.438Z,99656.91
2022-12-07T00:31:13.063Z,99651.25
2022-12-07T00:31:44.938Z,99647.03
2022-12-07T00:32:16.970Z,99651.91
2022-12-07T00:32:49.129Z,99644.16
2022-12-07T00:33:20.960Z,99642.22
2022-12-07T00:33:52.843Z,99648.19
2022-12-07T00:34:24.723Z,99645.13
2022-12-07T00:34:56.552Z,99641.91
2022-12-07T00:35:28.427Z,99642.03
2022-12-07T00:36:01.179Z,99642.19
2022-12-07T00:36:33.218Z,99636.41
2022-12-07T00:37:05.074Z,99641.25
2022-12-07T00:37:36.962Z,99636.09
2022-12-07T00:38:09.181Z,99641.09
2022-12-07T00:38:41.737Z,99656.38
2022-12-07T00:39:13.924Z,99646.91
2022-12-07T00:39:47.252Z,99639.50
2022-12-07T00:40:19.098Z,99645.41
2022-12-07T00:41:05.393Z,99643.16
2022-12-07T00:41:37.268Z,99640.59
2022-12-07T00:42:09.182Z,99635.28
2022-12-07T00:42:41.037Z,99639.12
2022-12-07T00:43:13.207Z,99641.06
2022-12-07T00:43:46.639Z,99635.09
2022-12-07T00:44:18.495Z,99643.78
2022-12-07T00:44:50.348Z,99633.00
2022-12-07T00:45:22.202Z,99635.44
2022-12-07T00:45:54.889Z,99630.88
2022-12-07T00:46:27.758Z,99638.47
2022-12-07T00:46:59.656Z,99627.37
2022-12-07T00:47:31.561Z,99627.50
2022-12-07T00:48:03.560Z,99628.47
2022-12-07T00:48:35.891Z,99632.66
2022-12-07T00:49:07.724Z,99623.94
2022-12-07T00:49:39.541Z,99630.28
2022-12-07T00:50:11.484Z,99629.94
2022-12-07T00:50:43.380Z,99628.84
2022-12-07T00:51:17.033Z,99629.31
2022-12-07T00:51:52.018Z,99635.13
2022-12-07T00:52:23.855Z,99627.41
2022-12-07T00:52:55.716Z,99630.94
2022-12-07T00:53:28.088Z,99628.81
2022-12-07T00:54:00.239Z,99626.72
2022-12-07T00:54:32.076Z,99634.50
2022-12-07T00:55:04.160Z,99630.94
2022-12-07T00:55:36.929Z,99634.16
2022-12-07T00:56:11.030Z,99632.88
2022-12-07T00:56:42.950Z,99631.91
2022-12-07T00:57:14.774Z,99627.09
2022-12-07T00:57:46.609Z,99633.47
2022-12-07T00:58:18.502Z,99631.47
2022-12-07T00:58:54.921Z,99631.19
2022-12-07T00:59:27.047Z,99630.75
2022-12-07T00:59:59.330Z,99634.97
2022-12-07T01:00:31.638Z,99632.38
2022-12-07T01:01:06.153Z,99630.94
2022-12-07T01:01:38.254Z,99628.16
2022-12-07T01:02:10.153Z,99622.81
2022-12-07T01:02:42.284Z,99630.69
2022-12-07T01:03:16.101Z,99623.16
2022-12-07T01:03:48.067Z,99627.78
2022-12-07T01:04:19.917Z,99630.53
2022-12-07T01:04:52.066Z,99630.22
2022-12-07T01:05:23.887Z,99626.53
2022-12-07T01:05:56.422Z,99624.44
2022-12-07T01:06:29.114Z,99625.53
2022-12-07T01:07:00.964Z,99623.78
2022-12-07T01:07:32.857Z,99627.97
2022-12-07T01:08:05.412Z,99625.72
2022-12-07T01:08:37.305Z,99619.44
2022-12-07T01:09:09.205Z,99622.22
2022-12-07T01:09:41.032Z,99630.56
2022-12-07T01:10:14.217Z,99625.41
2022-12-07T01:10:46.605Z,99625.13
2022-12-07T01:11:20.995Z,99631.41
2022-12-07T01:11:52.843Z,99628.00
2022-12-07T01:12:24.734Z,99627.63
2022-12-07T01:12:56.715Z,99627.56
2022-12-07T01:13:29.429Z,99626.22
2022-12-07T01:14:02.350Z,99621.13
2022-12-07T01:14:34.188Z,99629.88
2022-12-07T01:15:06.851Z,99624.41
2022-12-07T01:15:43.464Z,99629.88
2022-12-07T01:16:17.023Z,99626.97
2022-12-07T01:16:48.988Z,99629.22
2022-12-07T01:17:20.928Z,99632.66
2022-12-07T01:17:52.860Z,99620.37
2022-12-07T01:18:24.674Z,99623.47
2022-12-07T01:18:58.506Z,99625.03
2022-12-07T01:19:30.513Z,99628.19
2022-12-07T01:20:03.116Z,99616.91
2022-12-07T01:20:35.680Z,99621.69
2022-12-07T01:21:16.593Z,99622.69
2022-12-07T01:21:48.449Z,99620.16
2022-12-07T01:22:20.313Z,99618.56
2022-12-07T01:22:52.103Z,99620.37
2022-12-07T01:23:23.969Z,99622.47
2022-12-07T01:23:57.780Z,99622.13
2022-12-07T01:24:29.706Z,99621.16
2022-12-07T01:25:01.529Z,99615.81
2022-12-07T01:25:33.356Z,99621.41
2022-12-07T01:26:08.303Z,99619.34
2022-12-07T01:26:40.572Z,99618.16
2022-12-07T01:27:12.431Z,99616.53
2022-12-07T01:27:44.328Z,99620.47
2022-12-07T01:28:16.148Z,99611.63
2022-12-07T01:28:48.816Z,99616.34
2022-12-07T01:29:20.732Z,99613.34
2022-12-07T01:29:52.548Z,99609.72
2022-12-07T01:30:24.485Z,99613.75
2022-12-07T01:31:01.726Z,99620.72
2022-12-07T01:31:33.942Z,99609.94
2022-12-07T01:32:06.692Z,99614.09
2022-12-07T01:32:38.537Z,99618.97
2022-12-07T01:33:10.378Z,99623.34
2022-12-07T01:33:43.721Z,99621.38
2022-12-07T01:34:15.658Z,99616.34
2022-12-07T01:34:49.528Z,99623.09
2022-12-07T01:35:21.463Z,99612.94
2022-12-07T01:35:53.474Z,99622.13
2022-12-07T01:36:29.003Z,99615.31
2022-12-07T01:37:00.873Z,99618.81
2022-12-07T01:37:39.815Z,99624.97
2022-12-07T01:38:11.646Z,99628.37
2022-12-07T01:38:44.078Z,99623.09
2022-12-07T01:39:15.934Z,99630.00
2022-12-07T01:39:50.864Z,99629.88
2022-12-07T01:40:22.698Z,99634.69
2022-12-07T01:40:57.390Z,99627.28
2022-12-07T01:41:32.876Z,99629.88
2022-12-07T01:42:04.827Z,99630.84
2022-12-07T01:42:37.015Z,99620.87
2022-12-07T01:43:20.145Z,99620.72
2022-12-07T01:44:13.468Z,99619.91
2022-12-07T01:45:19.044Z,99622.16
2022-12-07T01:45:51.225Z,99627.44
2022-12-07T01:46:23.157Z,99617.25
2022-12-07T01:47:01.011Z,99622.72
2022-12-07T01:47:32.919Z,99619.09
2022-12-07T01:48:07.023Z,99620.22
2022-12-07T01:48:42.589Z,99615.94
2022-12-07T01:49:24.211Z,99612.75
2022-12-07T01:49:56.035Z,99616.00
2022-12-07T01:50:32.792Z,99621.84
2022-12-07T01:51:12.293Z,99625.06
2022-12-07T01:51:46.896Z,99620.22
2022-12-07T01:52:24.260Z,99623.72
2022-12-07T01:53:00.698Z,99619.22
2022-12-07T01:53:36.387Z,99614.69
2022-12-07T01:54:09.568Z,99620.13
2022-12-07T01:54:43.047Z,99618.81
2022-12-07T01:55:16.135Z,99623.38
2022-12-07T01:55:52.993Z,99620.81
2022-12-07T01:56:28.161Z,99619.50
2022-12-07T01:57:00.592Z,99614.34
2022-12-07T01:57:35.110Z,99616.62
2022-12-07T01:58:07.730Z,99610.84
2022-12-07T01:58:40.066Z,99618.84
2022-12-07T01:59:11.953Z,99613.00
2022-12-07T01:59:50.011Z,99616.88
2022-12-07T02:00:22.025Z,99616.22
2022-12-07T02:00:54.181Z,99612.19
2022-12-07T02:01:26.080Z,99614.28
2022-12-07T02:01:58.175Z,99612.19
2022-12-07T02:02:38.185Z,99610.44
2022-12-07T02:03:19.907Z,99607.94
2022-12-07T02:03:52.243Z,99609.19
2022-12-07T02:04:24.948Z,99614.31
2022-12-07T02:04:58.210Z,99606.91
2022-12-07T02:05:30.563Z,99613.88
2022-12-07T02:06:03.328Z,99608.84
2022-12-07T02:06:37.733Z,99619.47
2022-12-07T02:07:09.668Z,99610.81
2022-12-07T02:07:41.978Z,99613.75
2022-12-07T02:08:15.239Z,99617.59
2022-12-07T02:08:47.576Z,99614.00
2022-12-07T02:09:19.410Z,99617.81
2022-12-07T02:09:51.241Z,99610.06
2022-12-07T02:10:29.155Z,99608.72
2022-12-07T02:11:05.716Z,99606.75
2022-12-07T02:11:37.952Z,99610.91
2022-12-07T02:12:09.810Z,99602.63
2022-12-07T02:12:41.929Z,99606.03
2022-12-07T02:13:16.472Z,99604.81
2022-12-07T02:13:49.014Z,99596.25
2022-12-07T02:14:20.860Z,99599.56
2022-12-07T02:14:53.444Z,99598.78
2022-12-07T02:15:57.694Z,99596.16
2022-12-07T02:17:03.245Z,99597.84
2022-12-07T02:18:03.823Z,99597.63
2022-12-07T02:18:53.894Z,99601.53
2022-12-07T02:19:44.479Z,99603.00
2022-12-07T02:20:34.177Z,99605.09
2022-12-07T02:21:27.221Z,99604.13
2022-12-07T02:22:23.777Z,99612.50
2022-12-07T02:23:16.833Z,99609.59
2022-12-07T02:23:48.632Z,99605.37
2022-12-07T02:24:26.153Z,99609.09
2022-12-07T02:25:16.509Z,99616.19
2022-12-07T02:26:15.916Z,99609.41
2022-12-07T02:27:09.309Z,99603.91
2022-12-07T02:28:08.178Z,99608.59
2022-12-07T02:28:46.330Z,99605.56
2022-12-07T02:29:28.948Z,99603.97
2022-12-07T02:30:09.461Z,99601.53
2022-12-07T02:30:48.379Z,99603.81
2022-12-07T02:31:24.037Z,99604.13
2022-12-07T02:32:22.371Z,99603.53
2022-12-07T02:33:05.580Z,99607.03
2022-12-07T02:34:10.853Z,99600.62
2022-12-07T02:35:23.090Z,99603.34
2022-12-07T02:36:21.222Z,99603.19
2022-12-07T02:37:01.564Z,99606.44
2022-12-07T02:37:38.883Z,99609.94
2022-12-07T02:38:22.057Z,99605.63
2022-12-07T02:39:05.820Z,99604.00
2022-12-07T02:39:55.858Z,99605.31
2022-12-07T02:41:00.640Z,99611.91
2022-12-07T02:41:37.379Z,99607.53
2022-12-07T02:42:17.676Z,99610.28
2022-12-07T02:42:56.534Z,99612.06
2022-12-07T02:43:32.403Z,99609.34
2022-12-07T02:44:16.677Z,99600.31
2022-12-07T02:44:49.048Z,99610.00
2022-12-07T02:45:23.342Z,99612.69
2022-12-07T02:46:02.688Z,99605.78
2022-12-07T02:46:42.703Z,99606.09
2022-12-07T02:47:18.468Z,99612.16
2022-12-07T02:47:54.009Z,99608.31
2022-12-07T02:48:27.171Z,99605.44
2022-12-07T02:49:02.409Z,99609.66
2022-12-07T02:49:34.747Z,99607.53
2022-12-07T02:50:07.435Z,99609.94
2022-12-07T02:50:39.245Z,99612.22
2022-12-07T02:51:11.426Z,99614.16
2022-12-07T02:51:46.698Z,99609.94
2022-12-07T02:52:18.565Z,99605.13
2022-12-07T02:52:50.482Z,99607.03
2022-12-07T02:53:36.503Z,99610.78
2022-12-07T02:54:14.453Z,99606.44
2022-12-07T02:54:46.285Z,99608.34
2022-12-07T02:55:24.131Z,99604.97
2022-12-07T02:55:56.457Z,99612.84
2022-12-07T02:57:07.004Z,99611.06
2022-12-07T02:57:56.612Z,99607.72
2022-12-07T02:58:56.156Z,99608.38
2022-12-07T02:59:36.755Z,99601.31
2022-12-07T03:00:18.849Z,99610.63
2022-12-07T03:01:09.287Z,99612.56
2022-12-07T03:02:14.669Z,99606.09
2022-12-07T03:02:52.233Z,99605.44
2022-12-07T03:03:25.165Z,99601.12
2022-12-07T03:04:19.620Z,99607.09
2022-12-07T03:05:13.265Z,99601.59
2022-12-07T03:05:45.279Z,99610.28
2022-12-07T03:06:29.324Z,99608.34
2022-12-07T03:07:12.166Z,99600.94
2022-12-07T03:08:07.240Z,99610.63
2022-12-07T03:08:52.038Z,99601.44
2022-12-07T03:09:36.805Z,99606.09
2022-12-07T03:10:24.060Z,99600.00
2022-12-07T03:11:06.019Z,99600.00
2022-12-07T03:11:55.855Z,99600.19
2022-12-07T03:12:38.058Z,99605.47
2022-12-07T03:13:24.929Z,99602.25
2022-12-07T03:14:06.190Z,99598.88
2022-12-07T03:14:46.364Z,99592.59
2022-12-07T03:15:34.664Z,99598.72
2022-12-07T03:16:06.773Z,99589.37
2022-12-07T03:16:49.127Z,99586.47
2022-12-07T03:17:26.605Z,99593.72
2022-12-07T03:18:01.839Z,99598.38
2022-12-07T03:18:52.052Z,99595.31
2022-12-07T03:19:26.125Z,99594.66
2022-12-07T03:20:02.453Z,99594.84
2022-12-07T03:20:38.242Z,99594.69
2022-12-07T03:21:15.003Z,99595.81
2022-12-07T03:22:01.116Z,99591.28
2022-12-07T03:22:35.266Z,99593.56
2022-12-07T03:23:10.829Z,99595.97
2022-12-07T03:23:45.141Z,99598.88
2022-12-07T03:24:22.085Z,99590.00
2022-12-07T03:24:58.198Z,99592.75
2022-12-07T03:25:30.639Z,99593.22
2022-12-07T03:26:04.514Z,99592.25
2022-12-07T03:26:40.032Z,99586.12
2022-12-07T03:27:17.462Z,99593.88
2022-12-07T03:27:56.882Z,99588.41
2022-12-07T03:28:35.976Z,99591.59
2022-12-07T03:29:12.903Z,99579.66
2022-12-07T03:29:50.322Z,99587.22
2022-12-07T03:30:28.429Z,99583.53
2022-12-07T03:31:00.236Z,99581.78
2022-12-07T03:31:39.719Z,99584.22
2022-12-07T03:32:26.694Z,99587.09
2022-12-07T03:33:06.187Z,99590.16
2022-12-07T03:33:47.070Z,99586.75
2022-12-07T03:34:25.789Z,99588.38
2022-12-07T03:35:07.356Z,99577.41
2022-12-07T03:35:44.318Z,99577.75
2022-12-07T03:36:36.196Z,99583.22
2022-12-07T03:37:20.489Z,99589.97
2022-12-07T03:38:17.065Z,99581.44
2022-12-07T03:38:56.904Z,99585.81
2022-12-07T03:39:38.784Z,99589.34
2022-12-07T03:40:35.097Z,99590.63
2022-12-07T03:41:15.855Z,99587.41
2022-12-07T03:41:47.637Z,99590.59
2022-12-07T03:42:19.625Z,99587.06
2022-12-07T03:42:52.980Z,99578.06
2022-12-07T03:43:24.976Z,99579.69
2022-12-07T03:43:57.976Z,99586.94
2022-12-07T03:44:30.063Z,99584.81
2022-12-07T03:45:04.926Z,99582.56
2022-12-07T03:46:07.603Z,99580.28
2022-12-07T03:46:54.231Z,99590.59
2022-12-07T03:47:59.992Z,99589.66
2022-12-07T03:48:31.756Z,99593.22
2022-12-07T03:49:14.125Z,99594.00
2022-12-07T03:49:51.995Z,99591.94
2022-12-07T03:50:32.239Z,99596.44
2022-12-07T03:51:22.635Z,99599.66
2022-12-07T03:52:03.414Z,99593.81
2022-12-07T03:52:40.170Z,99587.38
2022-12-07T03:53:28.541Z,99592.88
2022-12-07T03:54:09.280Z,99583.22
2022-12-07T03:54:53.367Z,99590.94
2022-12-07T03:55:32.118Z,99588.22
2022-12-07T03:56:04.695Z,99588.34
2022-12-07T03:56:37.327Z,99585.91
2022-12-07T03:57:10.512Z,99587.03
2022-12-07T03:57:45.860Z,99585.75
2022-12-07T03:58:20.179Z,99593.47
2022-12-07T03:58:53.350Z,99587.53
2022-12-07T03:59:26.569Z,99587.69
2022-12-07T03:59:59.535Z,99591.53
2022-12-07T04:00:31.885Z,99582.19
2022-12-07T04:01:04.321Z,99587.00
2022-12-07T04:01:36.262Z,99597.81
2022-12-07T04:02:08.836Z,99598.97
2022-12-07T04:02:41.947Z,99594.12
2022-12-07T04:03:13.855Z,99599.28
2022-12-07T04:03:45.760Z,99600.88
2022-12-07T04:04:18.512Z,99598.00
2022-12-07T04:04:50.666Z,99593.78
2022-12-07T04:05:23.336Z,99599.06
2022-12-07T04:05:55.456Z,99605.25
2022-12-07T04:06:27.591Z,99602.03
2022-12-07T04:06:59.487Z,99603.78
2022-12-07T04:07:31.481Z,99601.50
2022-12-07T04:08:03.589Z,99600.88
2022-12-07T04:08:35.503Z,99610.22
2022-12-07T04:09:07.801Z,99604.47
2022-12-07T04:09:40.296Z,99608.47
2022-12-07T04:10:12.551Z,99606.84
2022-12-07T04:10:44.377Z,99615.09
2022-12-07T04:11:16.227Z,99616.09
2022-12-07T04:11:48.583Z,99621.28
2022-12-07T04:12:20.437Z,99618.22
2022-12-07T04:12:52.330Z,99616.28
2022-12-07T04:13:24.224Z,99617.72
2022-12-07T04:14:14.613Z,99613.19
2022-12-07T04:14:46.428Z,99613.84
2022-12-07T04:15:18.294Z,99611.94
2022-12-07T04:15:50.245Z,99620.94
2022-12-07T04:16:22.236Z,99613.50
2022-12-07T04:16:59.247Z,99618.34
2022-12-07T04:17:31.074Z,99614.00
2022-12-07T04:18:03.048Z,99617.88
2022-12-07T04:18:34.861Z,99622.41
2022-12-07T04:19:06.678Z,99621.44
2022-12-07T04:19:38.551Z,99622.25
2022-12-07T04:20:11.111Z,99626.09
2022-12-07T04:20:42.930Z,99622.88
2022-12-07T04:21:14.766Z,99618.34
2022-12-07T04:21:47.219Z,99624.31
2022-12-07T04:22:19.338Z,99620.63
2022-12-07T04:22:51.163Z,99617.41
2022-12-07T04:23:22.998Z,99613.37
2022-12-07T04:23:54.850Z,99612.87
2022-12-07T04:24:27.612Z,99620.00
2022-12-07T04:24:59.463Z,99619.00
2022-12-07T04:25:31.315Z,99615.78
2022-12-07T04:26:03.532Z,99617.53
2022-12-07T04:26:35.401Z,99610.09
2022-12-07T04:27:07.265Z,99613.19
2022-12-07T04:27:39.456Z,99618.69
2022-12-07T04:28:11.398Z,99624.47
2022-12-07T04:28:43.378Z,99620.41
2022-12-07T04:29:16.314Z,99614.63
2022-12-07T04:29:48.190Z,99613.34
2022-12-07T04:30:19.998Z,99620.25
2022-12-07T04:30:51.819Z,99611.38
2022-12-07T04:31:23.872Z,99614.63
2022-12-07T04:31:55.892Z,99618.97
2022-12-07T04:32:27.778Z,99619.63
2022-12-07T04:33:00.002Z,99616.41
2022-12-07T04:33:31.831Z,99617.84
2022-12-07T04:34:04.527Z,99613.81
2022-12-07T04:34:36.528Z,99614.16
2022-12-07T04:35:09.110Z,99610.44
2022-12-07T04:35:43.168Z,99616.03
2022-12-07T04:36:15.103Z,99619.56
2022-12-07T04:36:48.062Z,99616.00
2022-12-07T04:37:19.942Z,99611.69
2022-12-07T04:37:51.790Z,99611.53
2022-12-07T04:38:24.117Z,99611.22
2022-12-07T04:38:56.356Z,99607.69
2022-12-07T04:39:29.338Z,99609.66
2022-12-07T04:40:01.543Z,99605.28
2022-12-07T04:40:33.625Z,99615.62
2022-12-07T04:41:09.964Z,99608.34
2022-12-07T04:41:41.784Z,99604.00
2022-12-07T04:42:16.369Z,99606.06
2022-12-07T04:42:48.206Z,99608.16
2022-12-07T04:43:20.046Z,99600.28
2022-12-07T04:43:52.204Z,99603.84
2022-12-07T04:44:25.946Z,99605.59
2022-12-07T04:44:57.749Z,99599.81
2022-12-07T04:45:29.604Z,99607.09
2022-12-07T04:46:01.657Z,99604.66
2022-12-07T04:46:33.786Z,99610.78
2022-12-07T04:47:05.809Z,99612.84
2022-12-07T04:47:37.713Z,99602.53
2022-12-07T04:48:09.546Z,99602.22
2022-12-07T04:48:41.407Z,99604.94
2022-12-07T04:49:14.796Z,99606.84
2022-12-07T04:49:46.698Z,99608.31
2022-12-07T04:50:18.710Z,99606.06
2022-12-07T04:50:51.013Z,99603.19
2022-12-07T04:51:28.458Z,99599.66
2022-12-07T04:52:00.501Z,99599.16
2022-12-07T04:52:32.352Z,99606.44
2022-12-07T04:53:04.187Z,99602.72
2022-12-07T04:53:36.044Z,99604.47
2022-12-07T04:54:08.203Z,99607.38
2022-12-07T04:54:40.391Z,99603.19
2022-12-07T04:55:12.226Z,99607.56
2022-12-07T04:55:45.591Z,99606.13
2022-12-07T04:56:18.358Z,99602.41
2022-12-07T04:56:50.355Z,99605.16
2022-12-07T04:57:22.196Z,99602.75
2022-12-07T04:57:54.022Z,99601.91
2022-12-07T04:58:25.998Z,99606.91
2022-12-07T04:58:57.868Z,99611.91
2022-12-07T04:59:29.890Z,99599.97
2022-12-07T05:00:02.567Z,99601.88
2022-12-07T05:00:35.047Z,99604.75
2022-12-07T05:01:06.986Z,99609.00
2022-12-07T05:01:39.201Z,99610.94
2022-12-07T05:02:11.063Z,99603.50
2022-12-07T05:02:42.989Z,99602.88
2022-12-07T05:03:14.837Z,99602.22
2022-12-07T05:03:46.870Z,99602.69
2022-12-07T05:04:19.062Z,99599.78
2022-12-07T05:04:50.909Z,99603.03
2022-12-07T05:05:23.092Z,99603.22
2022-12-07T05:05:54.974Z,99598.06
2022-12-07T05:06:27.080Z,99600.50
2022-12-07T05:06:58.930Z,99600.50
2022-12-07T05:07:30.769Z,99592.56
2022-12-07T05:08:02.636Z,99596.28
2022-12-07T05:08:35.574Z,99598.06
2022-12-07T05:09:07.506Z,99592.59
2022-12-07T05:09:39.411Z,99604.03
2022-12-07T05:10:11.839Z,99597.25
2022-12-07T05:10:43.971Z,99600.94
2022-12-07T05:11:34.940Z,99597.72
2022-12-07T05:12:06.805Z,99591.94
2022-12-07T05:12:38.709Z,99591.94
2022-12-07T05:13:10.548Z,99596.75
2022-12-07T05:13:42.465Z,99596.09
2022-12-07T05:14:19.828Z,99589.09
2022-12-07T05:14:51.669Z,99597.00
2022-12-07T05:15:23.459Z,99595.88
2022-12-07T05:15:55.786Z,99594.12
2022-12-07T05:16:27.929Z,99591.53
2022-12-07T05:16:59.941Z,99593.00
2022-12-07T05:17:31.823Z,99591.25
2022-12-07T05:18:04.519Z,99593.03
2022-12-07T05:18:36.369Z,99592.84
2022-12-07T05:19:08.893Z,99588.38
2022-12-07T05:19:40.726Z,99588.84
2022-12-07T05:20:12.846Z,99593.53
2022-12-07T05:20:45.516Z,99591.63
2022-12-07T05:21:17.612Z,99592.25
2022-12-07T05:21:49.547Z,99583.84
2022-12-07T05:22:21.406Z,99590.16
2022-12-07T05:22:53.238Z,99579.66
2022-12-07T05:23:25.401Z,99587.56
2022-12-07T05:23:57.270Z,99586.91
2022-12-07T05:24:29.134Z,99590.16
2022-12-07T05:25:01.029Z,99590.63
2022-12-07T05:25:32.836Z,99583.66
2022-12-07T05:26:04.670Z,99586.59
2022-12-07T05:26:36.797Z,99595.44
2022-12-07T05:27:08.605Z,99588.69
2022-12-07T05:27:40.473Z,99589.66
2022-12-07T05:28:12.382Z,99585.12
2022-12-07T05:28:44.275Z,99587.53
2022-12-07T05:29:17.889Z,99596.87
2022-12-07T05:29:51.745Z,99591.69
2022-12-07T05:30:25.135Z,99593.00
2022-12-07T05:30:59.807Z,99578.44
2022-12-07T05:31:32.394Z,99586.69
2022-12-07T05:32:04.881Z,99582.06
2022-12-07T05:32:36.830Z,99581.28
2022-12-07T05:33:08.760Z,99580.81
2022-12-07T05:33:40.604Z,99580.31
2022-12-07T05:34:12.903Z,99578.03
2022-12-07T05:34:45.098Z,99580.94
2022-12-07T05:35:17.550Z,99583.06
2022-12-07T05:35:49.490Z,99583.53
2022-12-07T05:36:21.853Z,99584.16
2022-12-07T05:36:53.673Z,99586.69
2022-12-07T05:37:25.781Z,99587.16
2022-12-07T05:37:58.329Z,99583.44
2022-12-07T05:38:30.174Z,99582.75
2022-12-07T05:39:02.076Z,99581.94
2022-12-07T05:39:33.907Z,99580.31
2022-12-07T05:40:06.539Z,99580.81
2022-12-07T05:40:38.653Z,99575.34
2022-12-07T05:41:34.991Z,99581.63
2022-12-07T05:42:15.762Z,99582.16
2022-12-07T05:42:47.936Z,99574.50
2022-12-07T05:43:19.764Z,99577.25
2022-12-07T05:43:51.586Z,99578.38
2022-12-07T05:44:23.464Z,99579.03
2022-12-07T05:44:55.282Z,99579.56
2022-12-07T05:45:27.194Z,99580.81
2022-12-07T05:45:59.669Z,99581.13
2022-12-07T05:46:31.853Z,99583.09
2022-12-07T05:47:03.835Z,99581.13
2022-12-07T05:47:35.671Z,99587.22
2022-12-07T05:48:07.764Z,99594.03
2022-12-07T05:48:39.576Z,99586.47
2022-12-07T05:49:11.511Z,99588.38
2022-12-07T05:49:43.724Z,99594.03
2022-12-07T05:50:15.631Z,99593.38
2022-12-07T05:50:50.339Z,99589.97
2022-12-07T05:51:22.283Z,99592.06
2022-12-07T05:51:54.102Z,99597.87
2022-12-07T05:52:26.916Z,99588.19
2022-12-07T05:52:58.747Z,99589.47
2022-12-07T05:53:30.875Z,99592.69
2022-12-07T05:54:02.815Z,99590.31
2022-12-07T05:54:35.047Z,99592.41
2022-12-07T05:55:07.999Z,99592.88
2022-12-07T05:55:39.867Z,99591.75
2022-12-07T05:56:11.749Z,99588.19
2022-12-07T05:56:43.704Z,99591.44
2022-12-07T05:57:15.553Z,99590.19
2022-12-07T05:58:07.829Z,99591.81
2022-12-07T05:58:58.838Z,99588.56
2022-12-07T05:59:30.735Z,99596.91
2022-12-07T06:00:04.948Z,99601.12
2022-12-07T06:00:48.097Z,99595.31
2022-12-07T06:01:23.111Z,99597.56
2022-12-07T06:01:57.878Z,99590.47
2022-12-07T06:02:29.926Z,99598.81
2022-12-07T06:03:01.971Z,99599.09
2022-12-07T06:03:33.974Z,99597.31
2022-12-07T06:04:06.033Z,99597.50
2022-12-07T06:04:40.759Z,99586.88
2022-12-07T06:05:12.647Z,99591.13
2022-12-07T06:05:44.576Z,99592.13
2022-12-07T06:06:16.553Z,99596.50
2022-12-07T06:06:48.756Z,99593.88
2022-12-07T06:07:20.612Z,99592.25
2022-12-07T06:07:52.510Z,99594.94
2022-12-07T06:08:24.524Z,99594.28
2022-12-07T06:08:56.494Z,99590.06
2022-12-07T06:09:29.422Z,99600.03
2022-12-07T06:10:01.633Z,99603.94
2022-12-07T06:10:33.712Z,99599.06
2022-12-07T06:11:25.974Z,99599.69
2022-12-07T06:12:17.610Z,99601.69
2022-12-07T06:13:00.164Z,99596.53
2022-12-07T06:13:34.377Z,99599.31
2022-12-07T06:14:06.852Z,99596.13
2022-12-07T06:14:38.952Z,99593.97
2022-12-07T06:15:11.361Z,99597.72
2022-12-07T06:15:43.333Z,99595.88
2022-12-07T06:16:15.243Z,99592.66
2022-12-07T06:16:47.243Z,99591.91
2022-12-07T06:17:19.649Z,99592.41
2022-12-07T06:17:51.495Z,99598.25
2022-12-07T06:18:23.368Z,99590.59
2022-12-07T06:18:55.169Z,99594.34
2022-12-07T06:19:27.479Z,99596.19
2022-12-07T06:19:59.468Z,99593.53
2022-12-07T06:20:31.575Z,99595.91
2022-12-07T06:21:03.472Z,99597.06
2022-12-07T06:21:35.412Z,99595.28
2022-12-07T06:22:08.435Z,99602.41
2022-12-07T06:22:40.543Z,99593.59
2022-12-07T06:23:12.388Z,99598.94
2022-12-07T06:23:44.206Z,99594.56
2022-12-07T06:24:17.013Z,99606.97
2022-12-07T06:24:49.019Z,99590.53
2022-12-07T06:25:20.868Z,99597.22
2022-12-07T06:25:52.713Z,99595.47
2022-12-07T06:26:24.575Z,99598.56
2022-12-07T06:26:56.376Z,99601.03
2022-12-07T06:27:28.190Z,99601.94
2022-12-07T06:28:00.353Z,99594.88
2022-12-07T06:28:32.182Z,99600.84
2022-12-07T06:29:04.054Z,99599.69
2022-12-07T06:29:36.096Z,99588.72
2022-12-07T06:30:09.541Z,99594.47
2022-12-07T06:30:41.377Z,99596.56
2022-12-07T06:31:15.750Z,99596.41
2022-12-07T06:31:47.638Z,99595.47
2022-12-07T06:32:19.576Z,99603.97
2022-12-07T06:32:51.446Z,99601.22
2022-12-07T06:33:23.655Z,99598.34
2022-12-07T06:34:03.587Z,99598.19
2022-12-07T06:34:35.614Z,99601.91
2022-12-07T06:35:07.851Z,99603.88
2022-12-07T06:35:39.694Z,99602.25
2022-12-07T06:36:11.811Z,99603.28
2022-12-07T06:36:44.123Z,99610.22
2022-12-07T06:37:16.008Z,99600.34
2022-12-07T06:37:48.319Z,99597.75
2022-12-07T06:38:20.467Z,99598.69
2022-12-07T06:38:53.000Z,99602.25
2022-12-07T06:39:27.291Z,99591.28
2022-12-07T06:39:59.216Z,99595.13
2022-12-07T06:40:31.142Z,99597.06
2022-12-07T06:41:03.044Z,99600.94
2022-12-07T06:41:34.940Z,99603.16
2022-12-07T06:42:06.780Z,99596.50
2022-12-07T06:42:38.645Z,99599.09
2022-12-07T06:43:10.536Z,99603.69
2022-12-07T06:43:43.106Z,99607.75
2022-12-07T06:44:15.523Z,99608.78
2022-12-07T06:44:47.381Z,99607.25
2022-12-07T06:45:19.204Z,99606.78
2022-12-07T06:45:51.837Z,99607.59
2022-12-07T06:46:24.288Z,99612.41
2022-12-07T06:47:18.738Z,99601.84
2022-12-07T06:47:49.420Z,99603.28
2022-12-07T06:48:21.398Z,99607.00
2022-12-07T06:48:53.431Z,99599.06
2022-12-07T06:49:25.606Z,99605.66
2022-12-07T06:49:57.451Z,99603.06
2022-12-07T06:50:29.304Z,99600.19
2022-12-07T06:51:01.265Z,99606.81
2022-12-07T06:51:36.244Z,99606.00
2022-12-07T06:52:08.059Z,99606.34